Time;durP1;ratioP1;P1;durP2;ratioP2;P2;SDS_P1;SDS_P2;PMS_P1;PMS_P2;Temp;Humidity;BMP_temperature;BMP_pressure;BME280_temperature;BME280_humidity;BME280_pressure;Samples;Min_cycle;Max_cycle;Signal;HPM_P1;HPM_P2
2022/11/08 00:16:36;;;;;;;7.15;3.83;;;;;;;11.95;100.00;100773.31;10546831;28;20127;-68
2022/11/08 00:21:37;;;;;;;7.28;2.60;;;;;;;11.89;100.00;100768.75;10547172;28;20135;-68
2022/11/08 00:26:37;;;;;;;10.55;2.88;;;;;;;11.89;100.00;100766.84;10546301;28;20372;-68
2022/11/08 00:31:38;;;;;;;12.35;3.10;;;;;;;11.88;100.00;100764.38;10546054;28;20078;-68
2022/11/08 00:36:38;;;;;;;10.45;4.00;;;;;;;11.82;100.00;100763.28;10527289;28;20466;-68
2022/11/08 00:41:38;;;;;;;4.88;3.17;;;;;;;11.86;100.00;100762.66;10545806;28;20039;-67
2022/11/08 00:46:40;;;;;;;2.95;1.77;;;;;;;11.89;100.00;100745.16;10545640;28;20482;-68
2022/11/08 00:51:40;;;;;;;3.42;3.13;;;;;;;11.88;100.00;100740.78;10545241;28;20439;-68
2022/11/08 00:56:41;;;;;;;7.13;3.40;;;;;;;11.82;100.00;100736.97;10561561;28;20044;-69
2022/11/08 01:01:41;;;;;;;7.78;3.35;;;;;;;11.82;100.00;100736.97;10543836;28;20033;-68
2022/11/08 01:06:42;;;;;;;5.53;2.88;;;;;;;11.85;100.00;100727.63;10545395;28;20044;-68
2022/11/08 01:11:45;;;;;;;14.18;4.43;;;;;;;11.81;100.00;100719.03;10546204;28;20055;-68
2022/11/08 01:16:45;;;;;;;3.00;2.50;;;;;;;11.76;100.00;100710.69;10545568;28;20036;-69
2022/11/08 01:21:46;;;;;;;14.60;3.55;;;;;;;11.80;100.00;100697.53;10542731;28;20403;-68
2022/11/08 01:26:46;;;;;;;4.63;3.35;;;;;;;11.78;100.00;100692.34;10544608;28;20043;-68
2022/11/08 01:31:46;;;;;;;5.93;2.55;;;;;;;11.77;100.00;100681.69;10525569;28;20036;-68
2022/11/08 01:36:47;;;;;;;3.17;2.72;;;;;;;11.86;100.00;100691.28;10542951;28;20055;-68
2022/11/08 01:41:47;;;;;;;5.65;3.45;;;;;;;11.75;100.00;100679.19;10543434;28;20032;-69
2022/11/08 01:46:48;;;;;;;7.28;2.03;;;;;;;11.81;100.00;100667.50;10543772;28;20097;-68
2022/11/08 01:51:50;;;;;;;5.18;2.95;;;;;;;11.74;100.00;100669.41;10559101;28;20036;-69
2022/11/08 01:56:50;;;;;;;2.78;2.40;;;;;;;11.73;100.00;100666.88;10548008;28;20036;-69
2022/11/08 02:01:51;;;;;;;10.02;3.30;;;;;;;11.67;100.00;100665.81;10531929;28;20040;-69
2022/11/08 02:06:51;;;;;;;4.85;2.67;;;;;;;11.68;100.00;100670.22;10509401;28;20039;-70
2022/11/08 02:11:51;;;;;;;4.57;2.33;;;;;;;11.63;100.00;100662.72;10554184;28;20134;-68
2022/11/08 02:16:52;;;;;;;3.47;2.13;;;;;;;11.68;100.00;100655.81;10531941;28;20043;-69
2022/11/08 02:21:55;;;;;;;8.32;2.65;;;;;;;11.68;100.00;100648.53;10542746;28;20496;-69
2022/11/08 02:26:55;;;;;;;6.07;1.98;;;;;;;11.63;100.00;100641.00;10524419;28;20032;-68
2022/11/08 02:31:56;;;;;;;8.23;3.70;;;;;;;11.66;100.00;100639.75;10540316;28;20032;-69
2022/11/08 02:36:56;;;;;;;4.35;3.33;;;;;;;11.61;100.00;100632.28;10506499;28;20116;-68
2022/11/08 02:41:57;;;;;;;6.18;2.28;;;;;;;11.52;100.00;100619.13;10523111;28;20040;-69
2022/11/08 02:46:57;;;;;;;7.38;2.63;;;;;;;11.38;100.00;100608.28;10541257;28;20048;-68
2022/11/08 02:51:58;;;;;;;8.75;4.25;;;;;;;11.21;100.00;100612.47;10539883;28;20090;-70
2022/11/08 02:56:58;;;;;;;13.13;2.65;;;;;;;11.08;100.00;100598.94;10541371;28;20040;-68
2022/11/08 03:01:58;;;;;;;6.22;3.25;;;;;;;10.98;100.00;100591.22;10541000;28;20032;-69
2022/11/08 03:06:59;;;;;;;3.38;2.25;;;;;;;10.91;100.00;100574.97;10541102;28;20036;-69
2022/11/08 03:11:59;;;;;;;5.00;2.65;;;;;;;10.77;100.00;100561.59;10542043;28;20024;-71
2022/11/08 03:17:00;;;;;;;11.73;3.30;;;;;;;10.71;100.00;100566.78;10542176;28;20036;-67
2022/11/08 03:22:00;;;;;;;5.50;3.25;;;;;;;10.70;100.00;100554.31;10542068;28;20060;-68
2022/11/08 03:27:00;;;;;;;10.88;3.60;;;;;;;10.71;100.00;100531.59;10542734;28;20036;-68
2022/11/08 03:32:01;;;;;;;2.75;2.28;;;;;;;10.66;100.00;100520.56;10557311;28;20059;-69
2022/11/08 03:37:03;;;;;;;11.27;4.25;;;;;;;10.66;100.00;100511.63;10556853;28;20047;-69
2022/11/08 03:42:03;;;;;;;3.75;3.03;;;;;;;10.58;100.00;100507.22;10539951;28;20091;-69
2022/11/08 03:47:04;;;;;;;5.53;2.15;;;;;;;10.58;100.00;100509.09;10540458;28;20097;-68
2022/11/08 03:52:04;;;;;;;9.05;4.43;;;;;;;10.51;100.00;100498.25;10538098;28;20119;-68
2022/11/08 03:57:04;;;;;;;3.13;2.42;;;;;;;10.51;100.00;100495.56;10540921;28;20028;-68
2022/11/08 04:02:05;;;;;;;13.52;3.42;;;;;;;10.45;100.00;100497.22;10539619;28;20376;-68
2022/11/08 04:07:05;;;;;;;3.15;2.80;;;;;;;10.48;100.00;100494.09;10538301;28;20039;-68
2022/11/08 04:21:17;;;;;;;4.80;2.65;;;;;;;10.47;100.00;100489.72;10537953;28;20040;-67
2022/11/08 04:22:46;;;;;;;7.82;3.13;;;;;;;10.44;100.00;100473.91;10540558;28;20060;-68
2022/11/08 04:27:46;;;;;;;3.08;2.55;;;;;;;10.44;100.00;100473.06;10538074;28;20047;-69
2022/11/08 04:32:46;;;;;;;8.40;3.40;;;;;;;10.46;100.00;100461.00;10538433;28;20467;-68
2022/11/08 04:37:47;;;;;;;5.03;2.50;;;;;;;10.43;100.00;100456.00;10543731;28;20093;-69
2022/11/08 04:42:47;;;;;;;7.00;3.17;;;;;;;10.45;100.00;100453.91;10545676;28;20039;-68
2022/11/08 04:47:48;;;;;;;4.93;2.20;;;;;;;10.42;100.00;100446.19;10546725;28;20097;-67
2022/11/08 04:52:52;;;;;;;7.60;2.95;;;;;;;10.45;100.00;100437.66;10543985;28;20050;-69
2022/11/08 04:57:56;;;;;;;6.68;2.42;;;;;;;10.50;100.00;100431.63;10544624;28;20028;-68
2022/11/08 05:02:56;;;;;;;8.50;3.83;;;;;;;10.55;100.00;100422.88;10544870;28;20459;-68
2022/11/08 05:07:56;;;;;;;3.63;3.15;;;;;;;10.52;100.00;100417.88;10546104;28;20037;-69
2022/11/08 05:12:57;;;;;;;2.83;2.50;;;;;;;10.58;100.00;100414.31;10542996;28;20028;-68
2022/11/08 05:17:57;;;;;;;5.30;2.13;;;;;;;10.63;100.00;100407.25;10542964;28;20032;-68
2022/11/08 05:28:20;;;;;;;9.32;3.38;;;;;;;10.66;100.00;100406.00;10543945;28;20040;-69
2022/11/08 05:33:21;;;;;;;1.88;1.77;;;;;;;10.66;100.00;100401.41;10543099;28;20032;-69
2022/11/08 05:38:21;;;;;;;3.45;2.42;;;;;;;10.69;100.00;100392.03;10543791;28;20132;-68
2022/11/08 05:43:21;;;;;;;3.85;2.35;;;;;;;10.72;100.00;100391.63;10543064;28;20035;-69
2022/11/08 05:48:22;;;;;;;3.60;2.85;;;;;;;10.76;100.00;100379.31;10543216;28;20047;-70
2022/11/08 05:53:22;;;;;;;13.05;2.72;;;;;;;10.72;100.00;100378.09;10558233;28;20120;-68
2022/11/08 05:58:22;;;;;;;3.80;2.08;;;;;;;10.73;100.00;100368.91;10542017;28;20040;-69
2022/11/08 06:03:23;;;;;;;1.55;1.52;;;;;;;10.74;100.00;100375.97;10541746;28;20035;-69
2022/11/08 06:08:23;;;;;;;2.85;2.50;;;;;;;10.73;100.00;100362.66;10557867;28;20067;-69
2022/11/08 06:13:24;;;;;;;2.50;1.98;;;;;;;10.70;100.00;100367.44;10542377;28;20099;-68
2022/11/08 06:18:24;;;;;;;2.60;2.35;;;;;;;10.67;100.00;100369.75;10541816;28;20036;-69
2022/11/08 06:23:24;;;;;;;2.17;2.03;;;;;;;10.67;100.00;100356.22;10542489;28;20044;-69
2022/11/08 06:28:26;;;;;;;4.07;2.20;;;;;;;10.68;100.00;100349.75;10477058;28;20048;-71
2022/11/08 06:33:26;;;;;;;10.55;3.15;;;;;;;10.78;100.00;100347.41;10556735;28;20153;-70
2022/11/08 06:38:27;;;;;;;2.25;1.85;;;;;;;10.81;100.00;100354.28;10540852;28;20069;-70
2022/11/08 06:43:27;;;;;;;4.70;2.60;;;;;;;10.87;100.00;100348.84;10540692;28;20055;-69
2022/11/08 06:48:28;;;;;;;2.25;2.08;;;;;;;10.96;100.00;100357.59;10540492;28;20171;-71
2022/11/08 06:53:28;;;;;;;8.02;1.98;;;;;;;11.03;100.00;100344.03;10539478;28;20059;-69
2022/11/08 06:58:29;;;;;;;4.75;1.70;;;;;;;11.06;100.00;100352.53;10539980;28;20080;-70
2022/11/08 07:03:29;;;;;;;5.47;2.60;;;;;;;11.10;100.00;100342.09;10539778;28;20234;-69
2022/11/08 07:08:31;;;;;;;3.00;2.30;;;;;;;11.16;100.00;100352.09;10539611;28;20119;-69
2022/11/08 07:13:31;;;;;;;2.20;1.75;;;;;;;11.30;100.00;100350.19;10539371;28;20063;-70
2022/11/08 07:18:31;;;;;;;4.00;1.88;;;;;;;11.35;100.00;100344.91;10538207;28;20083;-69
2022/11/08 07:23:32;;;;;;;4.30;2.33;;;;;;;11.49;100.00;100329.44;10540724;28;20476;-71
2022/11/08 07:28:32;;;;;;;2.00;1.85;;;;;;;11.63;100.00;100339.13;10539025;28;20036;-71
2022/11/08 07:33:33;;;;;;;3.70;2.72;;;;;;;11.76;100.00;100358.03;10539570;28;20093;-70
2022/11/08 07:38:33;;;;;;;1.70;1.60;;;;;;;11.88;100.00;100352.78;10555619;28;20119;-69
2022/11/08 07:43:33;;;;;;;4.63;2.38;;;;;;;11.95;100.00;100340.00;10555403;28;20063;-70
2022/11/08 07:48:34;;;;;;;7.00;2.28;;;;;;;12.14;100.00;100346.31;10538632;28;20032;-70
2022/11/08 07:53:35;;;;;;;6.95;2.35;;;;;;;12.22;100.00;100350.63;10539111;28;20490;-69
2022/11/08 07:58:35;;;;;;;1.80;1.70;;;;;;;12.40;100.00;100336.28;10539311;28;20047;-71
2022/11/08 08:03:36;;;;;;;3.17;2.38;;;;;;;12.38;100.00;100360.09;10538647;28;20499;-70
2022/11/08 08:08:36;;;;;;;3.20;3.00;;;;;;;12.41;100.00;100355.06;10538974;28;20040;-69
2022/11/08 08:13:37;;;;;;;4.45;2.25;;;;;;;12.45;100.00;100360.88;10546197;28;20047;-72
2022/11/08 08:18:37;;;;;;;2.10;1.92;;;;;;;12.52;100.00;100365.19;10547611;28;20384;-70
2022/11/08 08:23:37;;;;;;;3.80;3.00;;;;;;;12.49;100.00;100351.22;10545578;28;20060;-71
2022/11/08 08:28:38;;;;;;;9.10;2.78;;;;;;;12.53;100.00;100353.25;10545407;28;20048;-71
2022/11/08 08:33:38;;;;;;;3.38;2.92;;;;;;;12.61;100.00;100329.59;10544259;28;20032;-69
2022/11/08 08:38:38;;;;;;;7.30;2.85;;;;;;;12.66;100.00;100336.00;10547238;28;20047;-71
2022/11/08 08:43:39;;;;;;;2.67;2.47;;;;;;;12.70;100.00;100339.94;10545891;28;20047;-70
2022/11/08 08:48:39;;;;;;;5.60;2.38;;;;;;;12.79;100.00;100338.59;10547633;28;20032;-70
2022/11/08 08:53:40;;;;;;;2.47;2.28;;;;;;;13.10;100.00;100335.94;10544620;28;20457;-70
2022/11/08 08:58:40;;;;;;;3.78;2.38;;;;;;;13.27;100.00;100337.00;10543442;28;20032;-70
2022/11/08 09:03:41;;;;;;;1.45;1.35;;;;;;;13.21;100.00;100330.56;10544649;28;20039;-71
2022/11/08 09:08:41;;;;;;;3.22;1.90;;;;;;;13.21;100.00;100346.88;10527763;28;20353;-71
2022/11/08 09:13:41;;;;;;;4.38;2.22;;;;;;;13.25;100.00;100350.84;10545469;28;20440;-69
2022/11/08 09:18:42;;;;;;;5.60;2.50;;;;;;;13.28;100.00;100349.56;10562967;28;20063;-71
2022/11/08 09:23:42;;;;;;;5.25;2.03;;;;;;;13.29;100.00;100353.91;10555731;28;20056;-71
2022/11/08 09:28:43;;;;;;;3.78;2.72;;;;;;;13.14;100.00;100343.41;10560526;28;20043;-71
2022/11/08 09:33:43;;;;;;;6.25;2.30;;;;;;;13.18;100.00;100305.72;10547150;28;20105;-70
2022/11/08 09:38:43;;;;;;;6.20;2.00;;;;;;;13.36;100.00;100332.06;10545431;28;20040;-72
2022/11/08 09:44:05;;;;;;;3.20;1.90;;;;;;;13.39;100.00;100318.03;10543593;28;20028;-70
2022/11/08 09:49:09;;;;;;;4.40;1.90;;;;;;;13.47;100.00;100318.53;10543097;28;20456;-71
2022/11/08 09:54:40;;;;;;;2.13;1.80;;;;;;;13.51;100.00;100313.47;10524793;28;20365;-70
2022/11/08 09:59:49;;;;;;;2.83;2.25;;;;;;;13.67;100.00;100310.06;10532482;28;20043;-72
2022/11/08 10:05:12;;;;;;;2.55;1.92;;;;;;;13.72;100.00;100321.09;10540563;28;20073;-71
2022/11/08 10:10:36;;;;;;;4.47;2.63;;;;;;;13.80;100.00;100322.66;10523801;28;20165;-72
2022/11/08 10:16:03;;;;;;;2.95;2.30;;;;;;;13.90;100.00;100328.34;10540143;28;20032;-71
2022/11/08 10:21:14;;;;;;;1.83;1.65;;;;;;;14.10;100.00;100338.94;10540758;28;20094;-72
2022/11/08 10:26:16;;;;;;;4.72;2.10;;;;;;;14.17;100.00;100325.22;10540050;28;20040;-72
2022/11/08 10:31:17;;;;;;;2.85;2.30;;;;;;;14.19;100.00;100353.03;10542195;28;20028;-71
2022/11/08 10:36:42;;;;;;;5.80;2.13;;;;;;;14.13;100.00;100351.22;10540152;28;20044;-70
2022/11/08 10:41:46;;;;;;;2.70;1.92;;;;;;;14.25;100.00;100351.25;10539546;28;20488;-70
2022/11/08 10:46:55;;;;;;;4.47;1.95;;;;;;;14.50;100.00;100354.59;10539371;28;20036;-72
2022/11/08 10:52:00;;;;;;;3.92;2.40;;;;;;;14.94;100.00;100343.34;10540103;28;20047;-71
2022/11/08 10:57:01;;;;;;;2.50;2.05;;;;;;;15.21;100.00;100321.78;10541088;28;20487;-71
2022/11/08 11:02:01;;;;;;;5.32;2.65;;;;;;;15.27;100.00;100342.66;10539375;28;20063;-70
2022/11/08 11:07:03;;;;;;;8.27;3.50;;;;;;;15.25;100.00;100342.06;10540116;28;20104;-65
2022/11/08 11:12:06;;;;;;;5.40;2.25;;;;;;;15.59;100.00;100324.72;10538460;28;20032;-72
2022/11/08 11:17:16;;;;;;;2.08;1.98;;;;;;;15.76;100.00;100330.28;10522080;28;20024;-71
2022/11/08 11:22:20;;;;;;;3.25;2.85;;;;;;;15.88;100.00;100324.72;10539562;28;20055;-70
2022/11/08 11:27:32;;;;;;;2.65;2.38;;;;;;;16.20;100.00;100332.34;10521218;28;20034;-72
2022/11/08 11:32:33;;;;;;;5.75;2.85;;;;;;;16.32;100.00;100335.81;10537612;28;20035;-71
2022/11/08 11:37:44;;;;;;;4.05;1.80;;;;;;;16.39;100.00;100320.09;10539698;28;20353;-71
2022/11/08 11:42:52;;;;;;;4.20;2.35;;;;;;;16.63;100.00;100330.84;10537871;28;20123;-71
2022/11/08 11:47:57;;;;;;;6.00;2.75;;;;;;;16.62;100.00;100334.63;10529547;28;20028;-72
2022/11/08 11:52:58;;;;;;;2.97;2.53;;;;;;;16.98;100.00;100337.91;10545348;28;20061;-71
2022/11/08 11:58:12;;;;;;;4.07;2.58;;;;;;;17.02;100.00;100328.94;10529973;28;20028;-72
2022/11/08 12:03:23;;;;;;;2.78;2.58;;;;;;;16.58;100.00;100317.09;10546578;28;20032;-71
2022/11/08 12:09:02;;;;;;;4.45;2.17;;;;;;;17.06;100.00;100312.81;10546154;28;20447;-70
2022/11/08 12:14:18;;;;;;;9.68;2.30;;;;;;;15.94;100.00;100306.53;10546618;28;20048;-72
2022/11/08 12:19:22;;;;;;;2.75;2.40;;;;;;;15.26;100.00;100309.09;10545533;28;20527;-71
2022/11/08 12:24:55;;;;;;;7.47;2.28;;;;;;;15.20;100.00;100317.41;10544890;28;20127;-72
2022/11/08 12:30:21;;;;;;;2.92;2.58;;;;;;;15.07;100.00;100311.16;10544212;28;20078;-72
2022/11/08 12:35:53;;;;;;;2.90;2.70;;;;;;;15.25;100.00;100302.00;10506396;28;20051;-72
2022/11/08 12:41:02;;;;;;;2.58;2.00;;;;;;;15.30;100.00;100320.34;10528111;28;20113;-72
2022/11/08 12:46:06;;;;;;;3.30;2.38;;;;;;;15.21;100.00;100308.97;10546456;28;20541;-72
2022/11/08 12:51:29;;;;;;;8.90;2.80;;;;;;;15.15;100.00;100309.13;10544522;28;20055;-72
2022/11/08 12:56:47;;;;;;;5.20;2.60;;;;;;;15.05;100.00;100307.03;10542726;28;20028;-72
2022/11/08 13:01:47;;;;;;;4.35;2.28;;;;;;;15.00;100.00;100296.84;10544630;28;20089;-72
2022/11/08 13:06:54;;;;;;;5.85;2.80;;;;;;;14.88;100.00;100277.78;10543071;28;20047;-71
2022/11/08 13:12:12;;;;;;;3.75;1.98;;;;;;;14.91;100.00;100290.13;10545504;28;20194;-72
2022/11/08 13:17:25;;;;;;;8.05;2.92;;;;;;;14.86;100.00;100290.00;10536751;28;20043;-72
2022/11/08 13:22:28;;;;;;;4.65;2.78;;;;;;;14.86;100.00;100274.47;10527463;28;20040;-70
2022/11/08 13:27:36;;;;;;;7.47;3.47;;;;;;;14.86;100.00;100290.81;10543437;28;20031;-72
2022/11/08 13:32:36;;;;;;;4.43;2.67;;;;;;;14.78;100.00;100284.94;10525065;28;20138;-73
2022/11/08 13:38:12;;;;;;;5.53;2.45;;;;;;;14.74;100.00;100291.91;10541237;28;20124;-72
2022/11/08 13:43:15;;;;;;;5.10;2.83;;;;;;;14.68;100.00;100281.97;10540262;28;20122;-72
2022/11/08 13:48:24;;;;;;;5.35;2.60;;;;;;;14.58;100.00;100269.81;10542222;28;20032;-72
2022/11/08 13:53:41;;;;;;;8.77;2.97;;;;;;;14.59;100.00;100284.25;10542623;28;20459;-71
2022/11/08 13:58:43;;;;;;;7.72;2.55;;;;;;;14.57;100.00;100279.03;10543037;28;20039;-71
2022/11/08 14:03:46;;;;;;;3.65;2.63;;;;;;;14.79;100.00;100278.41;10524560;28;20071;-72
2022/11/08 14:08:56;;;;;;;4.70;1.77;;;;;;;15.13;100.00;100294.94;10542169;28;20032;-72
2022/11/08 14:14:21;;;;;;;11.10;2.38;;;;;;;15.13;100.00;100286.75;10544143;28;20028;-70
2022/11/08 14:19:23;;;;;;;2.75;2.50;;;;;;;14.92;100.00;100277.31;10541814;28;20084;-72
2022/11/08 14:24:45;;;;;;;8.73;2.10;;;;;;;14.91;100.00;100270.22;10541236;28;20076;-73
2022/11/08 14:29:57;;;;;;;17.58;2.92;;;;;;;14.70;100.00;100271.66;10543320;28;20050;-72
2022/11/08 14:35:30;;;;;;;4.93;2.20;;;;;;;14.73;100.00;100273.91;10542685;28;20523;-71
2022/11/08 14:40:30;;;;;;;6.13;3.35;;;;;;;14.69;100.00;100275.47;10495610;28;20473;-72
2022/11/08 14:45:30;;;;;;;9.13;2.85;;;;;;;14.81;100.00;100289.91;10539652;28;20160;-72
2022/11/08 14:50:32;;;;;;;8.02;2.65;;;;;;;14.69;100.00;100281.75;10555714;28;20024;-72
2022/11/08 14:55:34;;;;;;;6.47;2.10;;;;;;;14.63;100.00;100275.34;10541705;28;20064;-71
2022/11/08 15:00:35;;;;;;;2.97;2.75;;;;;;;14.48;100.00;100285.88;10521582;28;20407;-72
2022/11/08 15:06:10;;;;;;;5.47;2.67;;;;;;;14.55;100.00;100269.44;10522669;28;20039;-72
2022/11/08 15:11:11;;;;;;;6.57;3.17;;;;;;;14.54;100.00;100263.16;10496282;28;20070;-72
2022/11/08 15:16:11;;;;;;;2.97;1.90;;;;;;;14.51;100.00;100268.25;10522483;28;20361;-71
2022/11/08 15:21:14;;;;;;;6.07;3.22;;;;;;;14.32;100.00;100272.97;10537759;28;20048;-71
2022/11/08 15:26:32;;;;;;;7.50;3.33;;;;;;;14.33;100.00;100259.16;10538231;28;20515;-72
2022/11/08 15:31:40;;;;;;;2.13;2.03;;;;;;;14.28;100.00;100275.34;10522296;28;20115;-72
2022/11/08 15:36:40;;;;;;;15.93;5.93;;;;;;;14.28;100.00;100256.28;10522042;28;20124;-72
2022/11/08 15:41:42;;;;;;;9.05;3.70;;;;;;;14.07;100.00;100255.00;10538172;28;20119;-73
2022/11/08 15:46:42;;;;;;;11.55;3.33;;;;;;;13.91;100.00;100255.69;10520941;28;20068;-71
2022/11/08 15:51:43;;;;;;;6.13;2.80;;;;;;;13.88;100.00;100248.00;10539047;28;20024;-71
2022/11/08 15:56:44;;;;;;;6.30;2.22;;;;;;;13.84;100.00;100244.91;10537984;28;20046;-72
2022/11/08 16:02:13;;;;;;;11.88;3.17;;;;;;;13.73;100.00;100238.41;10537710;28;20044;-72
2022/11/08 16:07:14;;;;;;;6.88;3.17;;;;;;;13.69;100.00;100250.81;10536830;28;20078;-72
2022/11/08 16:12:14;;;;;;;2.60;2.10;;;;;;;13.68;100.00;100253.75;10537335;28;20113;-71
2022/11/08 16:17:15;;;;;;;7.10;3.17;;;;;;;13.61;100.00;100239.44;10555207;28;20125;-72
2022/11/08 16:22:15;;;;;;;6.88;2.97;;;;;;;13.62;100.00;100244.63;10538980;28;20049;-71
2022/11/08 16:27:15;;;;;;;19.40;4.72;;;;;;;13.52;100.00;100240.84;10538036;28;20411;-73
2022/11/08 16:32:16;;;;;;;5.05;3.05;;;;;;;13.43;100.00;100237.63;10544412;28;20032;-72
2022/11/08 16:37:23;;;;;;;6.25;3.10;;;;;;;13.43;100.00;100222.16;10545825;28;20506;-71
2022/11/08 16:42:24;;;;;;;5.15;2.38;;;;;;;13.41;100.00;100223.44;10544878;28;20084;-73
2022/11/08 16:47:24;;;;;;;7.07;3.83;;;;;;;13.42;100.00;100222.38;10545695;28;20092;-73
2022/11/08 16:52:24;;;;;;;12.52;3.83;;;;;;;13.41;100.00;100223.44;10544389;28;20153;-75
2022/11/08 16:57:25;;;;;;;13.48;2.88;;;;;;;13.32;100.00;100227.56;10546420;28;20036;-72
2022/11/08 17:02:28;;;;;;;9.27;3.05;;;;;;;13.34;100.00;100212.66;10550476;28;20413;-72
2022/11/08 17:07:29;;;;;;;3.70;2.95;;;;;;;13.32;100.00;100208.50;10532299;28;20039;-71
2022/11/08 17:12:29;;;;;;;3.17;2.90;;;;;;;13.25;100.00;100228.47;10550931;28;20032;-72
2022/11/08 17:17:30;;;;;;;5.53;2.67;;;;;;;13.27;100.00;100233.66;10547289;28;20036;-72
2022/11/08 17:22:30;;;;;;;3.75;3.45;;;;;;;13.25;100.00;100236.63;10545340;28;20056;-71
2022/11/08 17:27:31;;;;;;;13.25;4.40;;;;;;;13.28;100.00;100234.53;10543741;28;20051;-72
2022/11/08 17:32:33;;;;;;;4.78;2.72;;;;;;;13.25;100.00;100236.63;10542832;28;20054;-72
2022/11/08 17:37:33;;;;;;;13.68;3.30;;;;;;;13.36;100.00;100228.75;10509154;28;20032;-73
2022/11/08 17:42:34;;;;;;;2.67;2.35;;;;;;;13.38;100.00;100245.66;10524772;28;20128;-73
2022/11/08 17:47:34;;;;;;;7.00;2.55;;;;;;;13.47;100.00;100233.41;10542971;28;20084;-73
2022/11/08 17:52:35;;;;;;;4.05;2.17;;;;;;;13.59;100.00;100241.56;10543658;28;20129;-73
2022/11/08 17:57:35;;;;;;;14.98;3.70;;;;;;;13.61;100.00;100234.81;10543772;28;20036;-73
2022/11/08 18:02:36;;;;;;;9.30;3.20;;;;;;;13.57;100.00;100233.66;10542991;28;20032;-73
2022/11/08 18:07:37;;;;;;;28.23;4.45;;;;;;;13.59;100.00;100225.22;10542683;28;20036;-72
2022/11/08 18:12:37;;;;;;;2.45;2.20;;;;;;;13.61;100.00;100231.28;10542490;28;20070;-72
2022/11/08 18:17:38;;;;;;;11.77;3.63;;;;;;;13.71;100.00;100229.63;10542352;28;20032;-72
2022/11/08 18:22:38;;;;;;;3.42;2.03;;;;;;;13.68;100.00;100240.97;10541538;28;20067;-73
2022/11/08 18:27:38;;;;;;;9.75;2.33;;;;;;;13.78;100.00;100234.13;10542097;28;20032;-73
2022/11/08 18:32:39;;;;;;;10.45;3.65;;;;;;;13.78;100.00;100228.69;10541426;28;20467;-72
2022/11/08 18:37:39;;;;;;;2.40;2.20;;;;;;;13.70;100.00;100222.53;10541927;28;20040;-73
2022/11/08 18:42:40;;;;;;;3.78;3.38;;;;;;;13.60;100.00;100227.75;10541412;28;20112;-72
2022/11/08 18:47:40;;;;;;;4.65;2.70;;;;;;;13.59;100.00;100231.53;10541043;28;20036;-72
2022/11/08 18:52:44;;;;;;;6.28;3.05;;;;;;;13.53;100.00;100231.59;10540245;28;20036;-73
2022/11/08 18:57:44;;;;;;;5.07;2.38;;;;;;;13.55;100.00;100215.91;10541415;28;20038;-72
2022/11/08 19:02:45;;;;;;;9.40;2.70;;;;;;;13.48;100.00;100227.72;10539473;28;20040;-72
2022/11/08 19:07:45;;;;;;;4.60;2.78;;;;;;;13.52;100.00;100238.13;10540977;28;20040;-73
2022/11/08 19:12:46;;;;;;;9.82;2.63;;;;;;;13.42;100.00;100238.69;10539752;28;20452;-72
2022/11/08 19:17:48;;;;;;;14.45;3.22;;;;;;;13.37;100.00;100222.22;10540977;28;20036;-73
2022/11/08 19:22:52;;;;;;;9.15;2.83;;;;;;;13.37;100.00;100214.91;10538762;28;20120;-72
2022/11/08 19:27:54;;;;;;;8.65;3.05;;;;;;;13.43;100.00;100226.75;10540857;28;20032;-73
2022/11/08 19:32:54;;;;;;;5.72;2.95;;;;;;;13.39;100.00;100229.09;10540265;28;20463;-73
2022/11/08 19:37:55;;;;;;;11.50;4.32;;;;;;;13.48;100.00;100230.41;10540106;28;20032;-73
2022/11/08 19:42:55;;;;;;;4.40;3.53;;;;;;;13.56;100.00;100255.63;10540406;28;20036;-72
2022/11/08 19:47:55;;;;;;;3.70;1.55;;;;;;;13.65;100.00;100290.44;10521175;28;20445;-72
2022/11/08 19:52:56;;;;;;;1.98;1.00;;;;;;;13.53;100.00;100286.00;10539259;28;20039;-74
2022/11/08 19:57:58;;;;;;;2.90;1.50;;;;;;;13.47;100.00;100288.63;10540270;28;20032;-73
2022/11/08 20:02:58;;;;;;;10.48;1.77;;;;;;;13.39;100.00;100269.88;10539875;28;20111;-73
2022/11/08 20:08:00;;;;;;;10.80;2.05;;;;;;;13.41;100.00;100280.56;10546344;28;20040;-72
2022/11/08 20:13:00;;;;;;;11.13;2.60;;;;;;;13.45;100.00;100281.75;10546877;28;20036;-71
2022/11/08 20:18:01;;;;;;;8.00;2.40;;;;;;;13.37;100.00;100288.34;10547054;28;20039;-71
2022/11/08 20:23:02;;;;;;;4.85;2.10;;;;;;;13.26;100.00;100273.63;10547605;28;20052;-74
2022/11/08 20:28:03;;;;;;;3.42;3.03;;;;;;;13.19;100.00;100277.47;10545913;28;20044;-70
2022/11/08 20:33:03;;;;;;;4.97;2.78;;;;;;;13.27;100.00;100298.94;10544854;28;20460;-69
2022/11/08 20:38:03;;;;;;;3.60;3.17;;;;;;;13.43;100.00;100295.59;10544942;28;20487;-71
2022/11/08 20:43:04;;;;;;;5.57;2.22;;;;;;;13.25;100.00;100279.31;10545986;28;20036;-72
2022/11/08 20:48:05;;;;;;;6.55;3.17;;;;;;;13.04;100.00;100288.75;10545532;28;20039;-73
2022/11/08 20:53:05;;;;;;;6.32;2.70;;;;;;;13.00;100.00;100299.25;10546465;28;20059;-75
2022/11/08 20:58:06;;;;;;;4.65;3.33;;;;;;;12.97;100.00;100302.41;10545662;28;20436;-77
2022/11/08 21:03:06;;;;;;;11.15;3.47;;;;;;;13.04;100.00;100297.72;10561482;28;20036;-70
2022/11/08 21:08:07;;;;;;;14.15;4.57;;;;;;;13.22;100.00;100307.75;10545726;28;20131;-71
2022/11/08 21:13:07;;;;;;;12.13;3.85;;;;;;;13.39;100.00;100342.50;10544579;28;20472;-74
2022/11/08 21:18:08;;;;;;;7.10;2.90;;;;;;;13.39;100.00;100342.50;10543287;28;20036;-73
2022/11/08 21:23:08;;;;;;;11.40;3.97;;;;;;;13.30;100.00;100336.53;10544933;28;20075;-73
2022/11/08 21:28:09;;;;;;;8.90;3.10;;;;;;;13.18;100.00;100322.88;10543057;28;20086;-69
2022/11/08 21:33:09;;;;;;;17.77;3.55;;;;;;;12.96;100.00;100318.97;10544175;28;20032;-74
2022/11/08 21:38:10;;;;;;;4.75;3.08;;;;;;;12.68;100.00;100323.03;10542797;28;20040;-73
2022/11/08 21:43:10;;;;;;;11.70;2.78;;;;;;;12.46;100.00;100336.22;10543803;28;20032;-74
2022/11/08 21:48:11;;;;;;;7.05;3.30;;;;;;;12.41;100.00;100335.22;10544170;28;20347;-73
2022/11/08 21:53:12;;;;;;;13.68;3.78;;;;;;;12.48;100.00;100330.56;10542871;28;20032;-73
2022/11/08 21:58:12;;;;;;;9.43;3.65;;;;;;;12.49;100.00;100324.06;10559247;28;20036;-73
2022/11/08 22:03:13;;;;;;;4.25;2.70;;;;;;;12.64;100.00;100315.56;10542471;28;20160;-73
2022/11/08 22:08:14;;;;;;;14.05;3.80;;;;;;;12.70;100.00;100315.50;10541777;28;20032;-73
2022/11/08 22:13:14;;;;;;;8.25;3.05;;;;;;;12.92;100.00;100312.31;10542522;28;20032;-74
2022/11/08 22:18:15;;;;;;;9.57;3.50;;;;;;;13.11;100.00;100305.78;10542974;28;20050;-73
2022/11/08 22:23:15;;;;;;;10.43;3.58;;;;;;;13.29;100.00;100312.31;10543042;28;20135;-73
2022/11/08 22:28:15;;;;;;;11.10;3.58;;;;;;;13.41;100.00;100296.88;10541189;28;20456;-72
2022/11/08 22:33:16;;;;;;;10.07;3.97;;;;;;;13.53;100.00;100305.91;10541122;28;20040;-71
2022/11/08 22:38:17;;;;;;;5.82;3.33;;;;;;;13.65;100.00;100335.84;10541579;28;20032;-73
2022/11/08 22:43:17;;;;;;;14.93;3.22;;;;;;;13.70;100.00;100342.25;10540917;28;20127;-73
2022/11/08 22:48:18;;;;;;;8.80;3.72;;;;;;;13.58;100.00;100332.41;10539993;28;20042;-73
2022/11/08 22:53:18;;;;;;;6.93;3.55;;;;;;;13.58;100.00;100330.50;10540566;28;20028;-73
2022/11/08 22:58:18;;;;;;;7.38;2.50;;;;;;;13.69;100.00;100313.41;10541039;28;20074;-73
2022/11/08 23:03:19;;;;;;;5.78;3.00;;;;;;;13.69;100.00;100318.84;10540891;28;20055;-72
2022/11/08 23:08:20;;;;;;;6.07;3.08;;;;;;;13.61;100.00;100313.72;10541636;28;20040;-73
2022/11/08 23:24:18;;;;;;;11.43;3.75;;;;;;;13.64;100.00;100310.53;10539824;28;20098;-73
2022/11/08 23:34:37;;;;;;;14.35;3.95;;;;;;;13.67;100.00;100315.53;10539112;28;20032;-74